Time;durP1;ratioP1;P1;durP2;ratioP2;P2;SDS_P1;SDS_P2;PMS_P1;PMS_P2;Temp;Humidity;BMP_temperature;BMP_pressure;BME280_temperature;BME280_humidity;BME280_pressure;Samples;Min_cycle;Max_cycle;Signal;HPM_P1;HPM_P2
2023/08/05 00:02:34;;;;;;;5.22;3.15;;;;;;;;;;6336127;28;20048;-80
2023/08/05 00:05:37;;;;;;;5.95;3.13;;;;;;;;;;6345118;28;20027;-77
2023/08/05 00:08:38;;;;;;;4.47;2.80;;;;;;;;;;6339505;28;20491;-77
2023/08/05 00:11:40;;;;;;;7.43;3.57;;;;;;;;;;6336277;28;20108;-77
2023/08/05 00:14:43;;;;;;;;;;;;;;;;;;6343535;28;20034;-79
2023/08/05 00:17:43;;;;;;;5.68;2.80;;;;;;;;;;6343738;28;20425;-77
2023/08/05 00:20:44;;;;;;;10.17;4.97;;;;;;;;;;6341153;28;20031;-77
2023/08/05 00:23:44;;;;;;;8.30;3.93;;;;;;;;;;6337157;28;20019;-77
2023/08/05 00:26:44;;;;;;;13.83;3.50;;;;;;;;;;6342872;28;20031;-77
2023/08/05 00:29:46;;;;;;;7.93;3.30;;;;;;;;;;6341701;28;20043;-77
2023/08/05 00:32:46;;;;;;;7.80;3.55;;;;;;;;;;6343778;28;20021;-76
2023/08/05 00:35:46;;;;;;;6.88;3.80;;;;;;;;;;6341190;28;20376;-77
2023/08/05 00:38:46;;;;;;;11.50;4.07;;;;;;;;;;6342692;28;20027;-76
2023/08/05 00:41:46;;;;;;;8.85;3.97;;;;;;;;;;6342050;28;20448;-77
2023/08/05 00:44:48;;;;;;;7.27;4.30;;;;;;;;;;6343884;28;20106;-77
2023/08/05 00:47:48;;;;;;;;;;;;;;;;;;6344114;28;20027;-77
2023/08/05 00:50:48;;;;;;;13.63;4.95;;;;;;;;;;6333873;28;20315;-77
2023/08/05 00:53:49;;;;;;;14.30;6.00;;;;;;;;;;6335294;28;20016;-77
2023/08/05 00:56:49;;;;;;;10.83;5.70;;;;;;;;;;6340538;28;20542;-76
2023/08/05 00:59:49;;;;;;;14.30;5.17;;;;;;;;;;6329070;28;20027;-77
2023/08/05 01:02:50;;;;;;;12.10;4.97;;;;;;;;;;6337136;28;20044;-77
2023/08/05 01:05:52;;;;;;;9.07;4.23;;;;;;;;;;6333747;28;20056;-77
2023/08/05 01:08:53;;;;;;;13.05;4.03;;;;;;;;;;6343130;28;20069;-76
2023/08/05 01:11:55;;;;;;;9.80;4.25;;;;;;;;;;6343780;28;20024;-77
2023/08/05 01:14:55;;;;;;;17.00;5.22;;;;;;;;;;6342797;28;20026;-77
2023/08/05 01:17:56;;;;;;;8.50;3.63;;;;;;;;;;6343990;28;20024;-76
2023/08/05 01:21:01;;;;;;;12.18;5.45;;;;;;;;;;6343545;28;20386;-77
2023/08/05 01:24:07;;;;;;;10.45;4.70;;;;;;;;;;6338979;28;20024;-77
2023/08/05 01:27:09;;;;;;;10.98;4.00;;;;;;;;;;6341278;28;20027;-77
2023/08/05 01:30:09;;;;;;;11.02;4.57;;;;;;;;;;6341011;28;20034;-77
2023/08/05 01:33:11;;;;;;;12.80;4.10;;;;;;;;;;6341116;28;20031;-77
2023/08/05 01:36:11;;;;;;;;;;;;;;;;;;6337879;28;20043;-80
2023/08/05 01:39:13;;;;;;;8.25;4.22;;;;;;;;;;6341356;28;19979;-80
2023/08/05 01:42:14;;;;;;;;;;;;;;;;;;6343078;28;20024;-80
2023/08/05 01:45:16;;;;;;;9.88;4.85;;;;;;;;;;6343209;28;20022;-80
2023/08/05 01:48:16;;;;;;;10.48;4.97;;;;;;;;;;6335534;28;20026;-79
2023/08/05 01:51:16;;;;;;;15.90;5.72;;;;;;;;;;6342496;28;20142;-80
2023/08/05 01:54:16;;;;;;;9.23;4.20;;;;;;;;;;6342409;28;20023;-80
2023/08/05 01:57:17;;;;;;;11.53;4.70;;;;;;;;;;6343383;28;20043;-81
2023/08/05 02:00:20;;;;;;;11.40;4.07;;;;;;;;;;6341361;28;20473;-81
2023/08/05 02:03:20;;;;;;;10.30;3.60;;;;;;;;;;6340018;28;20034;-81
2023/08/05 02:06:21;;;;;;;15.67;3.47;;;;;;;;;;6341879;28;20562;-81
2023/08/05 02:09:21;;;;;;;9.48;3.70;;;;;;;;;;6343151;28;20134;-81
2023/08/05 02:12:21;;;;;;;12.07;3.80;;;;;;;;;;6336281;28;20028;-81
2023/08/05 02:15:21;;;;;;;7.47;3.77;;;;;;;;;;6342196;28;20026;-81
2023/08/05 02:18:21;;;;;;;14.10;4.43;;;;;;;;;;6341802;28;20477;-81
2023/08/05 02:21:22;;;;;;;12.27;4.43;;;;;;;;;;6340457;28;20024;-81
2023/08/05 02:24:22;;;;;;;10.87;4.10;;;;;;;;;;6341907;28;20050;-80
2023/08/05 02:27:23;;;;;;;11.93;4.40;;;;;;;;;;6332921;28;20505;-77
2023/08/05 02:30:23;;;;;;;10.75;4.13;;;;;;;;;;6334564;28;20492;-77
2023/08/05 02:33:23;;;;;;;10.47;4.73;;;;;;;;;;6336347;28;20024;-78
2023/08/05 02:36:25;;;;;;;15.13;5.57;;;;;;;;;;6344812;28;20012;-80
2023/08/05 02:39:25;;;;;;;13.65;4.32;;;;;;;;;;6347924;28;20012;-80
2023/08/05 02:42:26;;;;;;;7.25;4.60;;;;;;;;;;6343839;28;20036;-80
2023/08/05 02:45:27;;;;;;;;;;;;;;;;;;6346781;28;20015;-81
2023/08/05 02:48:27;;;;;;;8.80;4.40;;;;;;;;;;6334650;28;20491;-81
2023/08/05 02:51:27;;;;;;;12.23;5.53;;;;;;;;;;6346118;28;20078;-81
2023/08/05 02:54:27;;;;;;;9.77;5.45;;;;;;;;;;6345264;28;20084;-81
2023/08/05 02:57:27;;;;;;;9.00;4.20;;;;;;;;;;6345380;28;20014;-78
2023/08/05 03:00:31;;;;;;;13.20;4.90;;;;;;;;;;6346712;28;20016;-77
2023/08/05 03:03:31;;;;;;;10.02;5.45;;;;;;;;;;6345423;28;20047;-77
2023/08/05 03:06:33;;;;;;;12.85;5.18;;;;;;;;;;6341086;28;20024;-77
2023/08/05 03:09:34;;;;;;;12.68;4.57;;;;;;;;;;6345752;28;20023;-75
2023/08/05 03:12:34;;;;;;;14.40;4.90;;;;;;;;;;6347152;28;20020;-74
2023/08/05 03:15:35;;;;;;;15.80;5.47;;;;;;;;;;6346697;28;20020;-75
2023/08/05 03:18:36;;;;;;;15.57;5.57;;;;;;;;;;6346708;28;20023;-75
2023/08/05 03:21:36;;;;;;;17.30;5.93;;;;;;;;;;6343752;28;20062;-75
2023/08/05 03:24:36;;;;;;;19.38;6.15;;;;;;;;;;6347035;28;20104;-74
2023/08/05 03:27:36;;;;;;;12.80;6.57;;;;;;;;;;6335128;28;20381;-75
2023/08/05 03:30:36;;;;;;;12.53;5.53;;;;;;;;;;6349284;28;20047;-73
2023/08/05 03:33:36;;;;;;;12.75;5.55;;;;;;;;;;6348515;28;20089;-73
2023/08/05 03:36:37;;;;;;;8.23;4.60;;;;;;;;;;6345131;28;20015;-73
2023/08/05 03:39:38;;;;;;;8.60;5.27;;;;;;;;;;6330089;28;20854;-74
2023/08/05 03:42:39;;;;;;;9.52;5.03;;;;;;;;;;6348706;28;20388;-75
2023/08/05 03:45:40;;;;;;;10.48;5.80;;;;;;;;;;6347209;28;20031;-87
2023/08/05 03:48:40;;;;;;;13.52;6.32;;;;;;;;;;6361942;28;20020;-80
2023/08/05 03:51:41;;;;;;;11.13;5.80;;;;;;;;;;6357724;28;20052;-81
2023/08/05 03:54:41;;;;;;;13.83;6.50;;;;;;;;;;6350759;28;20016;-78
2023/08/05 03:57:41;;;;;;;12.90;5.83;;;;;;;;;;6338128;28;20016;-77
2023/08/05 04:00:42;;;;;;;12.40;5.83;;;;;;;;;;6344715;28;20446;-76
2023/08/05 04:03:43;;;;;;;8.43;4.97;;;;;;;;;;6343385;28;20026;-80
2023/08/05 04:06:45;;;;;;;7.13;4.17;;;;;;;;;;6344537;28;20530;-80
2023/08/05 04:09:48;;;;;;;6.88;3.88;;;;;;;;;;6343937;28;20015;-78
2023/08/05 04:12:48;;;;;;;11.82;6.05;;;;;;;;;;6342259;28;20027;-77
2023/08/05 04:15:51;;;;;;;22.73;7.57;;;;;;;;;;6342669;28;20022;-79
2023/08/05 04:18:52;;;;;;;24.50;6.07;;;;;;;;;;6344103;28;20406;-79
2023/08/05 04:21:54;;;;;;;13.35;6.85;;;;;;;;;;6340981;28;20576;-82
2023/08/05 04:24:54;;;;;;;14.00;5.38;;;;;;;;;;6342955;28;20023;-80
2023/08/05 04:27:56;;;;;;;13.63;5.57;;;;;;;;;;6343754;28;20432;-80
2023/08/05 04:30:57;;;;;;;8.73;5.13;;;;;;;;;;6342836;28;20139;-80
2023/08/05 04:33:57;;;;;;;10.43;5.50;;;;;;;;;;6339494;28;20073;-80
2023/08/05 04:37:13;;;;;;;11.23;5.73;;;;;;;;;;6338240;28;20029;-79
2023/08/05 04:40:14;;;;;;;11.52;5.80;;;;;;;;;;6342279;28;20047;-81
2023/08/05 04:43:14;;;;;;;12.73;6.17;;;;;;;;;;6342054;28;20037;-83
2023/08/05 04:46:15;;;;;;;13.90;5.65;;;;;;;;;;6344136;28;20020;-80
2023/08/05 04:49:15;;;;;;;12.40;5.97;;;;;;;;;;6344019;27;20069;-81
2023/08/05 04:52:16;;;;;;;9.67;5.57;;;;;;;;;;6343105;27;20063;-81
2023/08/05 04:55:16;;;;;;;12.23;6.87;;;;;;;;;;6343624;28;20028;-81
2023/08/05 04:58:16;;;;;;;11.47;6.40;;;;;;;;;;6342216;27;20023;-81
2023/08/05 05:01:17;;;;;;;10.60;6.55;;;;;;;;;;6339514;28;20030;-80
2023/08/05 05:04:18;;;;;;;11.63;6.33;;;;;;;;;;6343189;28;20076;-82
2023/08/05 05:07:18;;;;;;;;;;;;;;;;;;6338609;28;20034;-81
2023/08/05 05:10:19;;;;;;;11.10;6.55;;;;;;;;;;6342269;27;19931;-82
2023/08/05 05:13:19;;;;;;;11.27;5.77;;;;;;;;;;6324140;28;20023;-80
2023/08/05 05:16:19;;;;;;;11.00;5.50;;;;;;;;;;6342356;28;20016;-81
2023/08/05 05:19:19;;;;;;;15.20;7.30;;;;;;;;;;6344822;28;20015;-82
2023/08/05 05:22:20;;;;;;;16.20;9.27;;;;;;;;;;6341058;28;20033;-82
2023/08/05 05:25:21;;;;;;;17.37;11.57;;;;;;;;;;6341417;28;20038;-83
2023/08/05 05:28:22;;;;;;;20.95;12.20;;;;;;;;;;6337197;28;20129;-82
2023/08/05 05:31:22;;;;;;;23.17;13.97;;;;;;;;;;6343611;28;20503;-81
2023/08/05 05:34:23;;;;;;;25.47;12.77;;;;;;;;;;6344423;28;20038;-82
2023/08/05 05:37:23;;;;;;;14.07;8.25;;;;;;;;;;6336423;28;20027;-80
2023/08/05 05:40:24;;;;;;;10.20;5.43;;;;;;;;;;6342071;28;20023;-82
2023/08/05 05:43:24;;;;;;;8.40;4.97;;;;;;;;;;6340149;28;20037;-83
2023/08/05 05:46:26;;;;;;;10.10;5.05;;;;;;;;;;6350454;27;20019;-82
2023/08/05 05:49:28;;;;;;;12.65;6.10;;;;;;;;;;6343258;28;20431;-80
2023/08/05 05:52:29;;;;;;;10.52;5.70;;;;;;;;;;6341996;28;20537;-81
2023/08/05 05:55:31;;;;;;;13.27;8.03;;;;;;;;;;6341867;28;20010;-80
2023/08/05 05:58:34;;;;;;;15.10;9.70;;;;;;;;;;6341209;28;20015;-82
2023/08/05 06:01:35;;;;;;;20.02;11.02;;;;;;;;;;6317975;28;20019;-81
2023/08/05 06:04:36;;;;;;;16.40;9.83;;;;;;;;;;6342307;28;20363;-82
2023/08/05 06:07:36;;;;;;;9.25;4.20;;;;;;;;;;6344491;28;20099;-80
2023/08/05 06:10:38;;;;;;;9.50;3.37;;;;;;;;;;6349052;27;20805;-79
2023/08/05 06:13:42;;;;;;;8.13;2.55;;;;;;;;;;6343551;27;20515;-79
2023/08/05 06:16:42;;;;;;;6.00;2.65;;;;;;;;;;6347748;28;20088;-77
2023/08/05 06:19:42;;;;;;;6.80;2.40;;;;;;;;;;6347338;28;20015;-76
2023/08/05 06:22:43;;;;;;;5.37;3.17;;;;;;;;;;6345756;28;20025;-77
2023/08/05 06:25:46;;;;;;;12.50;3.63;;;;;;;;;;6345381;28;20023;-77
2023/08/05 06:28:49;;;;;;;4.97;3.15;;;;;;;;;;6338647;28;20061;-77
2023/08/05 06:31:50;;;;;;;9.48;3.60;;;;;;;;;;6347172;28;20016;-77
2023/08/05 06:34:50;;;;;;;7.97;3.10;;;;;;;;;;6342326;28;20004;-78
2023/08/05 06:37:51;;;;;;;7.07;3.33;;;;;;;;;;6338533;28;20016;-78
2023/08/05 06:40:51;;;;;;;5.27;2.90;;;;;;;;;;6343217;28;20156;-78
2023/08/05 06:43:51;;;;;;;9.87;2.33;;;;;;;;;;6341753;28;20023;-78
2023/08/05 06:46:53;;;;;;;6.40;2.93;;;;;;;;;;6336912;28;20035;-78
2023/08/05 06:49:53;;;;;;;6.88;3.25;;;;;;;;;;6346272;28;20563;-77
2023/08/05 06:52:53;;;;;;;6.57;3.47;;;;;;;;;;6346251;28;20040;-79
2023/08/05 06:56:01;;;;;;;9.77;4.53;;;;;;;;;;6344681;28;20016;-79
2023/08/05 06:59:02;;;;;;;10.50;4.88;;;;;;;;;;6345104;28;20397;-78
2023/08/05 07:02:02;;;;;;;9.77;4.70;;;;;;;;;;6344109;28;20019;-79
2023/08/05 07:05:05;;;;;;;6.63;4.17;;;;;;;;;;6340245;28;20519;-78
2023/08/05 07:08:06;;;;;;;6.10;2.90;;;;;;;;;;6327147;28;20023;-80
2023/08/05 07:11:08;;;;;;;5.82;2.95;;;;;;;;;;6350077;27;20070;-80
2023/08/05 07:14:09;;;;;;;5.95;4.10;;;;;;;;;;6341291;28;20610;-81
2023/08/05 07:17:10;;;;;;;9.23;4.40;;;;;;;;;;6342527;28;20024;-83
2023/08/05 07:20:10;;;;;;;7.00;2.80;;;;;;;;;;6344940;27;20027;-82
2023/08/05 07:23:12;;;;;;;10.07;2.90;;;;;;;;;;6344358;28;20397;-83
2023/08/05 07:26:12;;;;;;;;;;;;;;;;;;6336425;27;20466;-80
2023/08/05 07:29:13;;;;;;;11.65;2.83;;;;;;;;;;6348408;27;19904;-81
2023/08/05 07:32:14;;;;;;;11.77;3.35;;;;;;;;;;6349222;28;20027;-80
2023/08/05 07:35:15;;;;;;;10.13;4.03;;;;;;;;;;6344997;28;20080;-83
2023/08/05 07:38:17;;;;;;;13.80;5.33;;;;;;;;;;6338932;28;20273;-81
2023/08/05 07:41:18;;;;;;;11.30;3.67;;;;;;;;;;6346972;28;20545;-81
2023/08/05 07:44:19;;;;;;;15.98;4.35;;;;;;;;;;6366301;28;20016;-80
2023/08/05 07:47:19;;;;;;;7.60;3.20;;;;;;;;;;6371613;28;20008;-81
2023/08/05 07:50:23;;;;;;;7.57;3.73;;;;;;;;;;6370781;28;20000;-80
2023/08/05 07:53:24;;;;;;;8.77;3.03;;;;;;;;;;6357961;28;20044;-79
2023/08/05 07:56:24;;;;;;;6.60;3.10;;;;;;;;;;6376075;28;20022;-81
2023/08/05 07:59:25;;;;;;;8.43;3.77;;;;;;;;;;6375741;27;20019;-79
2023/08/05 08:02:26;;;;;;;11.13;3.33;;;;;;;;;;6373318;27;20050;-80
2023/08/05 08:05:27;;;;;;;7.95;2.65;;;;;;;;;;6351149;28;20573;-82
2023/08/05 08:08:29;;;;;;;8.37;2.60;;;;;;;;;;6348273;28;20040;-84
2023/08/05 08:11:30;;;;;;;5.60;2.75;;;;;;;;;;6348269;27;20384;-83
2023/08/05 08:14:30;;;;;;;6.60;3.43;;;;;;;;;;6347000;27;20032;-83
2023/08/05 08:17:31;;;;;;;8.17;3.50;;;;;;;;;;6347125;28;20027;-83
2023/08/05 08:20:31;;;;;;;;;;;;;;;;;;6346155;28;20393;-84
2023/08/05 08:23:32;;;;;;;6.97;3.38;;;;;;;;;;6350958;28;19914;-83
2023/08/05 08:26:32;;;;;;;5.47;3.03;;;;;;;;;;6352890;27;20019;-85
2023/08/05 08:29:32;;;;;;;5.00;2.60;;;;;;;;;;6339252;28;20016;-86
2023/08/05 08:32:32;;;;;;;5.07;2.40;;;;;;;;;;6344185;27;20030;-87
2023/08/05 08:35:32;;;;;;;6.83;3.23;;;;;;;;;;6350267;28;20020;-85
2023/08/05 08:38:33;;;;;;;7.17;2.87;;;;;;;;;;6350942;28;20027;-85
2023/08/05 08:41:37;;;;;;;5.63;2.80;;;;;;;;;;6346470;28;20129;-85
2023/08/05 08:44:38;;;;;;;7.95;2.60;;;;;;;;;;6352526;28;20020;-86
2023/08/05 08:47:39;;;;;;;3.75;2.55;;;;;;;;;;6364049;28;20030;-84
2023/08/05 08:50:40;;;;;;;12.17;3.07;;;;;;;;;;6365636;28;20091;-83
2023/08/05 08:53:42;;;;;;;6.75;2.90;;;;;;;;;;6354913;28;20027;-83
2023/08/05 08:56:42;;;;;;;;;;;;;;;;;;6361383;28;20030;-80
2023/08/05 08:59:43;;;;;;;5.47;2.88;;;;;;;;;;6376049;27;19907;-84
2023/08/05 09:02:43;;;;;;;7.50;2.77;;;;;;;;;;6353997;28;20370;-85
2023/08/05 09:05:49;;;;;;;5.67;2.70;;;;;;;;;;6343979;28;20083;-86
2023/08/05 09:08:50;;;;;;;5.20;2.70;;;;;;;;;;6347022;28;20053;-84
2023/08/05 09:11:50;;;;;;;4.43;3.50;;;;;;;;;;6343166;28;20197;-87
2023/08/05 09:14:56;;;;;;;6.22;2.97;;;;;;;;;;6345915;28;20473;-87
2023/08/05 09:17:56;;;;;;;6.13;3.20;;;;;;;;;;6345785;28;20086;-85
2023/08/05 09:20:59;;;;;;;5.50;3.00;;;;;;;;;;6347683;28;20023;-85
2023/08/05 09:23:59;;;;;;;5.18;3.28;;;;;;;;;;6355191;28;20011;-84
2023/08/05 09:26:59;;;;;;;5.77;2.83;;;;;;;;;;6354402;28;20015;-85
2023/08/05 09:30:13;;;;;;;6.33;3.60;;;;;;;;;;6347617;28;20054;-86
2023/08/05 09:33:13;;;;;;;6.00;3.80;;;;;;;;;;6347122;28;20724;-86
2023/08/05 09:36:21;;;;;;;7.07;3.27;;;;;;;;;;6346189;28;20030;-84
2023/08/05 09:39:23;;;;;;;7.45;4.45;;;;;;;;;;6345425;28;20016;-86
2023/08/05 09:42:24;;;;;;;7.78;4.43;;;;;;;;;;6352050;28;20062;-86
2023/08/05 09:45:28;;;;;;;7.32;4.10;;;;;;;;;;6353829;28;20019;-83
2023/08/05 09:48:31;;;;;;;8.30;4.30;;;;;;;;;;6345919;28;20629;-84
2023/08/05 09:51:35;;;;;;;10.27;4.47;;;;;;;;;;6339722;28;20055;-84
2023/08/05 09:54:38;;;;;;;7.10;4.20;;;;;;;;;;6346163;28;20102;-85
2023/08/05 09:57:43;;;;;;;10.02;5.15;;;;;;;;;;6346791;28;20212;-85
2023/08/05 10:00:48;;;;;;;7.90;4.67;;;;;;;;;;6348196;28;20012;-83
2023/08/05 10:03:48;;;;;;;9.80;5.13;;;;;;;;;;6346922;28;20466;-86
2023/08/05 10:06:51;;;;;;;8.80;5.38;;;;;;;;;;6346099;28;20087;-84
2023/08/05 10:09:52;;;;;;;10.23;5.95;;;;;;;;;;6348657;28;20064;-87
2023/08/05 10:12:59;;;;;;;9.65;6.10;;;;;;;;;;6354564;28;20027;-85
2023/08/05 10:16:00;;;;;;;12.27;6.20;;;;;;;;;;6347483;28;20020;-78
2023/08/05 10:19:00;;;;;;;14.33;7.37;;;;;;;;;;6342290;28;20023;-78
2023/08/05 10:22:06;;;;;;;14.23;8.77;;;;;;;;;;6342241;28;20078;-78
2023/08/05 10:25:09;;;;;;;18.48;9.43;;;;;;;;;;6343221;28;20055;-77
2023/08/05 10:28:31;;;;;;;11.93;8.52;;;;;;;;;;6342512;28;20096;-78
2023/08/05 10:31:35;;;;;;;14.43;9.55;;;;;;;;;;6341864;28;20024;-78
2023/08/05 10:34:36;;;;;;;10.23;8.20;;;;;;;;;;6343034;28;20012;-78
2023/08/05 10:37:49;;;;;;;15.63;9.20;;;;;;;;;;6341898;28;20033;-79
2023/08/05 10:40:49;;;;;;;14.48;9.85;;;;;;;;;;6340376;28;20099;-78
2023/08/05 10:43:49;;;;;;;13.23;7.97;;;;;;;;;;6340527;28;20015;-78
2023/08/05 10:46:50;;;;;;;13.50;8.77;;;;;;;;;;6342311;28;20020;-78
2023/08/05 10:49:58;;;;;;;15.07;9.32;;;;;;;;;;6342594;28;20604;-79
2023/08/05 10:52:58;;;;;;;15.10;9.18;;;;;;;;;;6341706;28;20378;-78
2023/08/05 10:55:59;;;;;;;13.68;10.15;;;;;;;;;;6350420;27;20038;-78
2023/08/05 10:59:01;;;;;;;17.83;10.63;;;;;;;;;;6324644;28;20051;-78
2023/08/05 11:02:02;;;;;;;11.00;9.18;;;;;;;;;;6346755;28;20024;-78
2023/08/05 11:05:09;;;;;;;12.32;8.70;;;;;;;;;;6346951;28;20467;-83
2023/08/05 11:08:10;;;;;;;13.50;9.35;;;;;;;;;;6347326;28;20035;-83
2023/08/05 11:11:11;;;;;;;13.75;9.38;;;;;;;;;;6346247;28;20027;-82
2023/08/05 11:14:11;;;;;;;13.35;9.23;;;;;;;;;;6348199;27;20027;-83
2023/08/05 11:17:11;;;;;;;10.83;8.57;;;;;;;;;;6341877;28;20435;-83
2023/08/05 11:20:13;;;;;;;10.33;7.73;;;;;;;;;;6345862;28;20019;-82
2023/08/05 11:23:13;;;;;;;11.07;9.52;;;;;;;;;;6345795;27;20385;-82
2023/08/05 11:26:14;;;;;;;15.33;8.57;;;;;;;;;;6348137;28;20023;-83
2023/08/05 11:29:15;;;;;;;;;;;;;;;;;;6346722;28;20070;-82
2023/08/05 11:32:15;;;;;;;11.75;7.78;;;;;;;;;;6346539;27;20372;-81
2023/08/05 11:35:15;;;;;;;13.27;8.53;;;;;;;;;;6346717;27;20043;-78
2023/08/05 11:38:16;;;;;;;15.83;8.43;;;;;;;;;;6346478;28;20065;-78
2023/08/05 11:41:16;;;;;;;17.20;8.15;;;;;;;;;;6345570;27;20031;-78
2023/08/05 11:44:17;;;;;;;12.67;7.83;;;;;;;;;;6345403;28;20024;-77
2023/08/05 11:47:17;;;;;;;14.10;8.77;;;;;;;;;;6346713;28;20027;-81
2023/08/05 11:50:18;;;;;;;15.97;10.67;;;;;;;;;;6349041;28;20470;-82
2023/08/05 11:53:19;;;;;;;15.17;9.23;;;;;;;;;;6346160;28;20040;-82
2023/08/05 11:56:21;;;;;;;;;;;;;;;;;;6349892;27;20126;-81
2023/08/05 11:59:35;;;;;;;10.75;7.30;;;;;;;;;;6352327;27;19919;-81
2023/08/05 12:02:35;;;;;;;11.15;6.22;;;;;;;;;;6347162;27;20031;-82
2023/08/05 12:05:36;;;;;;;15.07;8.17;;;;;;;;;;6350914;27;20031;-81
2023/08/05 12:08:38;;;;;;;12.13;8.20;;;;;;;;;;6347820;28;20020;-82
2023/08/05 12:11:44;;;;;;;12.70;8.40;;;;;;;;;;6347296;28;20026;-82
2023/08/05 12:14:46;;;;;;;12.20;7.07;;;;;;;;;;6344669;28;20019;-80
2023/08/05 12:17:49;;;;;;;16.33;8.65;;;;;;;;;;6361592;28;20075;-81
2023/08/05 12:20:50;;;;;;;15.02;9.02;;;;;;;;;;6358566;28;20115;-81
2023/08/05 12:23:50;;;;;;;13.80;8.27;;;;;;;;;;6356325;28;20039;-81
2023/08/05 12:26:51;;;;;;;15.43;8.47;;;;;;;;;;6350254;28;20032;-78
2023/08/05 12:29:51;;;;;;;11.70;7.78;;;;;;;;;;6347102;28;20023;-78
2023/08/05 12:32:56;;;;;;;12.40;7.40;;;;;;;;;;6346357;28;20051;-79
2023/08/05 12:35:57;;;;;;;11.95;7.43;;;;;;;;;;6347653;28;20022;-78
2023/08/05 12:38:58;;;;;;;10.27;6.77;;;;;;;;;;6334887;28;20489;-79
2023/08/05 12:41:58;;;;;;;16.20;7.70;;;;;;;;;;6346500;28;20165;-79
2023/08/05 12:45:05;;;;;;;11.00;7.40;;;;;;;;;;6345013;27;20484;-81
2023/08/05 12:48:07;;;;;;;13.63;8.50;;;;;;;;;;6346533;28;20023;-81
2023/08/05 12:51:08;;;;;;;11.43;7.30;;;;;;;;;;6346603;28;20059;-80
2023/08/05 12:54:08;;;;;;;9.98;7.13;;;;;;;;;;6343891;28;20389;-81
2023/08/05 12:57:08;;;;;;;10.45;6.80;;;;;;;;;;6344371;28;20012;-81
2023/08/05 13:00:09;;;;;;;13.40;8.70;;;;;;;;;;6322729;28;20557;-81
2023/08/05 13:03:10;;;;;;;10.63;7.22;;;;;;;;;;6340839;28;20541;-81
2023/08/05 13:06:11;;;;;;;;;;;;;;;;;;6344377;28;20034;-80
2023/08/05 13:09:11;;;;;;;14.98;8.60;;;;;;;;;;6343663;28;19911;-81
2023/08/05 13:12:13;;;;;;;26.03;9.50;;;;;;;;;;6343851;28;20120;-80
2023/08/05 13:15:13;;;;;;;12.07;7.65;;;;;;;;;;6341574;27;20051;-80
2023/08/05 13:18:14;;;;;;;13.20;7.97;;;;;;;;;;6342406;28;20508;-80
2023/08/05 13:21:19;;;;;;;13.13;9.23;;;;;;;;;;6343386;28;20024;-80
2023/08/05 13:24:20;;;;;;;10.82;7.70;;;;;;;;;;6343155;28;20023;-80
2023/08/05 13:27:21;;;;;;;11.32;8.00;;;;;;;;;;6339243;28;20038;-81
2023/08/05 13:30:23;;;;;;;13.35;8.40;;;;;;;;;;6324903;28;20409;-80
2023/08/05 13:33:25;;;;;;;;;;;;;;;;;;6339804;27;20491;-80
2023/08/05 13:36:27;;;;;;;13.85;8.65;;;;;;;;;;6332917;28;19907;-80
2023/08/05 13:39:27;;;;;;;13.05;8.13;;;;;;;;;;6324237;28;20024;-80
2023/08/05 13:42:28;;;;;;;9.83;7.87;;;;;;;;;;6346878;27;20016;-80
2023/08/05 13:45:30;;;;;;;15.93;8.63;;;;;;;;;;6343752;28;20020;-81
2023/08/05 13:48:36;;;;;;;12.15;8.35;;;;;;;;;;6342789;28;20128;-81
2023/08/05 13:51:37;;;;;;;13.18;9.05;;;;;;;;;;6342237;28;20782;-80
2023/08/05 13:54:37;;;;;;;;;;;;;;;;;;6342891;28;20043;-79
2023/08/05 13:57:37;;;;;;;12.27;8.35;;;;;;;;;;6342807;28;20059;-79
2023/08/05 14:00:38;;;;;;;14.70;8.50;;;;;;;;;;6335989;28;20077;-79
2023/08/05 14:03:38;;;;;;;11.70;8.53;;;;;;;;;;6341313;28;20500;-79
2023/08/05 14:06:38;;;;;;;11.15;8.60;;;;;;;;;;6338822;28;20432;-80
2023/08/05 14:09:38;;;;;;;11.47;8.50;;;;;;;;;;6323907;28;20031;-80
2023/08/05 14:12:39;;;;;;;14.37;9.30;;;;;;;;;;6342939;28;20111;-80
2023/08/05 14:15:41;;;;;;;9.60;7.10;;;;;;;;;;6340278;28;20030;-79
2023/08/05 14:18:41;;;;;;;13.52;8.70;;;;;;;;;;6342830;28;20035;-79
2023/08/05 14:21:42;;;;;;;12.35;7.88;;;;;;;;;;6342320;28;20030;-80
2023/08/05 14:24:42;;;;;;;12.80;8.50;;;;;;;;;;6342852;28;20023;-80
2023/08/05 14:27:43;;;;;;;14.50;9.40;;;;;;;;;;6342045;28;20065;-79
2023/08/05 14:30:43;;;;;;;13.77;8.87;;;;;;;;;;6347787;28;20107;-80
2023/08/05 14:33:43;;;;;;;15.63;9.30;;;;;;;;;;6347933;28;20488;-79
2023/08/05 14:36:43;;;;;;;13.67;10.83;;;;;;;;;;6347008;28;20095;-80
2023/08/05 14:39:46;;;;;;;18.45;10.23;;;;;;;;;;6345403;28;20431;-80
2023/08/05 14:42:46;;;;;;;19.55;11.32;;;;;;;;;;6340780;28;20388;-79
2023/08/05 14:45:47;;;;;;;17.67;10.93;;;;;;;;;;6343211;28;20023;-79
2023/08/05 14:48:47;;;;;;;20.87;12.10;;;;;;;;;;6347318;28;20039;-79
2023/08/05 14:51:47;;;;;;;15.67;10.23;;;;;;;;;;6346755;28;20069;-79
2023/08/05 14:54:50;;;;;;;23.63;12.23;;;;;;;;;;6347474;28;20080;-80
2023/08/05 14:57:53;;;;;;;22.15;12.73;;;;;;;;;;6347129;28;20015;-80
2023/08/05 15:00:53;;;;;;;18.45;10.80;;;;;;;;;;6347998;27;20064;-80
2023/08/05 15:03:53;;;;;;;21.15;12.18;;;;;;;;;;6347028;28;20058;-80
2023/08/05 15:06:55;;;;;;;21.10;13.18;;;;;;;;;;6339063;28;20386;-79
2023/08/05 15:09:55;;;;;;;;;;;;;;;;;;6343271;28;20448;-79
2023/08/05 15:12:57;;;;;;;14.20;10.20;;;;;;;;;;6341135;28;19912;-79
2023/08/05 15:16:00;;;;;;;16.85;10.40;;;;;;;;;;6343020;27;20084;-79
2023/08/05 15:19:01;;;;;;;14.07;11.43;;;;;;;;;;6342717;28;20127;-79
2023/08/05 15:22:03;;;;;;;16.93;11.23;;;;;;;;;;6346416;27;20035;-79
2023/08/05 15:25:03;;;;;;;21.25;13.68;;;;;;;;;;6325752;27;20445;-80
2023/08/05 15:28:09;;;;;;;17.17;11.87;;;;;;;;;;6336328;28;20051;-80
2023/08/05 15:31:17;;;;;;;18.35;11.20;;;;;;;;;;6326935;28;20027;-80
2023/08/05 15:34:17;;;;;;;19.25;12.13;;;;;;;;;;6344351;28;20027;-81
2023/08/05 15:37:17;;;;;;;19.55;12.50;;;;;;;;;;6350798;27;20068;-81
2023/08/05 15:40:18;;;;;;;20.63;10.03;;;;;;;;;;6346137;27;20026;-81
2023/08/05 15:43:18;;;;;;;13.65;10.63;;;;;;;;;;6336855;28;20489;-81
2023/08/05 15:46:18;;;;;;;14.20;11.27;;;;;;;;;;6326196;28;20103;-81
2023/08/05 15:49:20;;;;;;;17.50;11.23;;;;;;;;;;6346166;27;20448;-81
2023/08/05 15:52:22;;;;;;;14.40;10.40;;;;;;;;;;6341251;28;20071;-81
2023/08/05 15:55:22;;;;;;;;;;;;;;;;;;6337846;27;20016;-81
2023/08/05 15:58:22;;;;;;;15.32;11.35;;;;;;;;;;6334952;28;19966;-81
2023/08/05 16:01:22;;;;;;;17.27;10.67;;;;;;;;;;6343142;28;20015;-81
2023/08/05 16:04:23;;;;;;;16.90;10.67;;;;;;;;;;6337000;28;20031;-81
2023/08/05 16:07:23;;;;;;;14.20;9.63;;;;;;;;;;6348562;27;20031;-81
2023/08/05 16:10:23;;;;;;;17.03;10.83;;;;;;;;;;6345306;27;20129;-81
2023/08/05 16:13:23;;;;;;;14.80;10.88;;;;;;;;;;6343114;28;20548;-81
2023/08/05 16:16:23;;;;;;;12.90;10.23;;;;;;;;;;6334698;27;20028;-82
2023/08/05 16:19:25;;;;;;;17.23;10.23;;;;;;;;;;6334205;28;20485;-81
2023/08/05 16:22:25;;;;;;;14.35;10.63;;;;;;;;;;6330766;27;20193;-82
2023/08/05 16:25:29;;;;;;;15.63;10.90;;;;;;;;;;6338524;28;20035;-81
2023/08/05 16:28:30;;;;;;;15.18;10.52;;;;;;;;;;6334391;28;20066;-81
2023/08/05 16:31:30;;;;;;;11.65;9.43;;;;;;;;;;6342625;28;20039;-81
2023/08/05 16:34:31;;;;;;;14.23;10.67;;;;;;;;;;6337909;28;20012;-81
2023/08/05 16:37:31;;;;;;;15.70;9.20;;;;;;;;;;6343605;27;20019;-81
2023/08/05 16:40:32;;;;;;;14.10;10.20;;;;;;;;;;6324687;28;20616;-81
2023/08/05 16:43:33;;;;;;;15.73;8.75;;;;;;;;;;6344735;28;20027;-81
2023/08/05 16:46:33;;;;;;;;;;;;;;;;;;6325665;28;20016;-82
2023/08/05 16:49:34;;;;;;;15.70;8.63;;;;;;;;;;6339517;28;19907;-82
2023/08/05 16:52:34;;;;;;;9.57;7.50;;;;;;;;;;6337422;28;20039;-81
2023/08/05 16:55:35;;;;;;;13.63;8.40;;;;;;;;;;6339595;28;20042;-82
2023/08/05 16:58:35;;;;;;;16.48;9.77;;;;;;;;;;6342251;28;20032;-82
2023/08/05 17:01:36;;;;;;;12.27;8.90;;;;;;;;;;6322693;28;20038;-81
2023/08/05 17:04:36;;;;;;;11.60;8.27;;;;;;;;;;6342155;28;20488;-82
2023/08/05 17:07:37;;;;;;;10.37;7.63;;;;;;;;;;6343515;28;20497;-81
2023/08/05 17:10:38;;;;;;;12.52;8.75;;;;;;;;;;6345483;28;20043;-81
2023/08/05 17:13:39;;;;;;;11.07;8.37;;;;;;;;;;6343186;28;20569;-80
2023/08/05 17:16:39;;;;;;;12.93;8.93;;;;;;;;;;6359313;28;20018;-80
2023/08/05 17:19:39;;;;;;;11.10;8.33;;;;;;;;;;6359044;28;20023;-81
2023/08/05 17:22:41;;;;;;;14.43;8.27;;;;;;;;;;6342870;28;20076;-81
2023/08/05 17:25:41;;;;;;;15.25;10.88;;;;;;;;;;6363296;27;20031;-80
2023/08/05 17:28:42;;;;;;;14.73;11.27;;;;;;;;;;6357858;27;20028;-80
2023/08/05 17:31:43;;;;;;;13.00;9.32;;;;;;;;;;6366370;28;20076;-80
2023/08/05 17:34:44;;;;;;;19.57;13.37;;;;;;;;;;6347730;28;20023;-81
2023/08/05 17:37:44;;;;;;;19.97;11.73;;;;;;;;;;6342673;28;20043;-80
2023/08/05 17:40:45;;;;;;;18.90;10.60;;;;;;;;;;6325738;28;20028;-80
2023/08/05 17:43:45;;;;;;;14.67;9.27;;;;;;;;;;6345809;28;20095;-79
2023/08/05 17:46:46;;;;;;;18.27;10.20;;;;;;;;;;6345509;28;20011;-80
2023/08/05 17:49:47;;;;;;;18.83;10.30;;;;;;;;;;6343574;28;20070;-82
2023/08/05 17:52:48;;;;;;;15.30;9.63;;;;;;;;;;6345327;27;20405;-80
2023/08/05 17:55:48;;;;;;;20.20;10.33;;;;;;;;;;6342967;28;20090;-81
2023/08/05 17:58:51;;;;;;;15.77;9.53;;;;;;;;;;6341644;28;20134;-81
2023/08/05 18:01:51;;;;;;;15.73;10.32;;;;;;;;;;6322580;28;20027;-81